sensor_id;sensor_type;location;lat;lon;timestamp;pressure;altitude;pressure_sealevel;temperature;humidity
13476;BME280;6810;63.824;20.288;2023-05-22T08:02:00;102625.44;;;17.46;52.68
13476;BME280;6810;63.824;20.288;2023-05-22T08:04:28;102623.16;;;17.54;51.98
13476;BME280;6810;63.824;20.288;2023-05-22T08:06:55;102618.84;;;17.51;51.70
13476;BME280;6810;63.824;20.288;2023-05-22T08:09:23;102647.00;;;17.77;51.55
13476;BME280;6810;63.824;20.288;2023-05-22T08:11:50;102624.22;;;17.67;51.83
13476;BME280;6810;63.824;20.288;2023-05-22T08:14:17;102640.28;;;17.84;51.40
13476;BME280;6810;63.824;20.288;2023-05-22T08:16:44;102645.41;;;17.88;51.34
13476;BME280;6810;63.824;20.288;2023-05-22T08:19:12;102643.16;;;17.96;51.76
13476;BME280;6810;63.824;20.288;2023-05-22T08:21:39;102632.25;;;17.98;51.83
13476;BME280;6810;63.824;20.288;2023-05-22T08:24:06;102644.56;;;18.03;51.50
13476;BME280;6810;63.824;20.288;2023-05-22T08:26:35;102639.16;;;18.03;51.38
13476;BME280;6810;63.824;20.288;2023-05-22T08:29:02;102644.09;;;18.11;51.30
13476;BME280;6810;63.824;20.288;2023-05-22T08:31:29;102645.75;;;18.13;51.34
13476;BME280;6810;63.824;20.288;2023-05-22T08:33:56;102635.63;;;18.17;50.74
13476;BME280;6810;63.824;20.288;2023-05-22T08:36:31;102625.03;;;18.14;51.03
13476;BME280;6810;63.824;20.288;2023-05-22T08:39:00;102636.91;;;18.25;51.28
13476;BME280;6810;63.824;20.288;2023-05-22T08:41:28;102634.91;;;18.29;50.35
13476;BME280;6810;63.824;20.288;2023-05-22T08:43:56;102620.09;;;18.20;50.36
13476;BME280;6810;63.824;20.288;2023-05-22T08:46:23;102630.84;;;18.36;49.85
13476;BME280;6810;63.824;20.288;2023-05-22T08:48:55;102625.41;;;18.37;49.79
13476;BME280;6810;63.824;20.288;2023-05-22T08:51:28;102626.00;;;18.42;50.45
13476;BME280;6810;63.824;20.288;2023-05-22T08:53:59;102625.72;;;18.47;49.64
13476;BME280;6810;63.824;20.288;2023-05-22T08:56:27;102612.03;;;18.50;50.10
13476;BME280;6810;63.824;20.288;2023-05-22T08:58:56;102620.81;;;18.53;49.38
13476;BME280;6810;63.824;20.288;2023-05-22T09:01:24;102594.47;;;18.43;48.92
13476;BME280;6810;63.824;20.288;2023-05-22T09:03:51;102608.66;;;18.60;48.76
13476;BME280;6810;63.824;20.288;2023-05-22T09:06:19;102618.34;;;18.64;48.84
13476;BME280;6810;63.824;20.288;2023-05-22T09:08:47;102611.78;;;18.68;48.88
13476;BME280;6810;63.824;20.288;2023-05-22T09:11:17;102611.38;;;18.74;48.86
13476;BME280;6810;63.824;20.288;2023-05-22T09:13:44;102608.31;;;18.80;48.50
13476;BME280;6810;63.824;20.288;2023-05-22T09:16:11;102599.13;;;18.83;48.86
13476;BME280;6810;63.824;20.288;2023-05-22T09:18:39;102606.94;;;18.87;48.17
13476;BME280;6810;63.824;20.288;2023-05-22T09:21:11;102601.25;;;18.92;48.38
13476;BME280;6810;63.824;20.288;2023-05-22T09:23:59;102600.88;;;18.98;48.10
13476;BME280;6810;63.824;20.288;2023-05-22T09:26:27;102592.59;;;19.01;48.14
13476;BME280;6810;63.824;20.288;2023-05-22T09:28:59;102597.50;;;19.09;48.00
13476;BME280;6810;63.824;20.288;2023-05-22T09:31:30;102591.78;;;19.13;47.33
13476;BME280;6810;63.824;20.288;2023-05-22T09:33:57;102595.03;;;19.18;47.42
13476;BME280;6810;63.824;20.288;2023-05-22T09:36:32;102593.81;;;19.24;47.22
13476;BME280;6810;63.824;20.288;2023-05-22T09:39:00;102579.91;;;19.30;46.71
13476;BME280;6810;63.824;20.288;2023-05-22T09:41:33;102586.56;;;19.38;46.79
13476;BME280;6810;63.824;20.288;2023-05-22T09:44:02;102577.72;;;19.49;47.16
13476;BME280;6810;63.824;20.288;2023-05-22T09:46:38;102567.38;;;19.55;46.73
13476;BME280;6810;63.824;20.288;2023-05-22T09:49:06;102573.97;;;19.78;46.78
13476;BME280;6810;63.824;20.288;2023-05-22T09:51:34;102562.88;;;19.95;46.31
13476;BME280;6810;63.824;20.288;2023-05-22T09:54:02;102558.34;;;20.08;46.19
13476;BME280;6810;63.824;20.288;2023-05-22T09:56:37;102565.47;;;20.35;45.36
13476;BME280;6810;63.824;20.288;2023-05-22T09:59:08;102558.88;;;20.52;45.57
13476;BME280;6810;63.824;20.288;2023-05-22T10:01:37;102563.97;;;20.69;45.13
13476;BME280;6810;63.824;20.288;2023-05-22T10:04:26;102559.84;;;20.89;44.88
13476;BME280;6810;63.824;20.288;2023-05-22T10:07:21;102520.03;;;20.89;44.74
13476;BME280;6810;63.824;20.288;2023-05-22T10:10:10;102550.91;;;21.24;44.22
13476;BME280;6810;63.824;20.288;2023-05-22T10:13:04;102550.59;;;21.40;43.40
13476;BME280;6810;63.824;20.288;2023-05-22T10:15:52;102533.84;;;21.46;42.97
13476;BME280;6810;63.824;20.288;2023-05-22T10:18:40;102545.50;;;21.71;42.86
13476;BME280;6810;63.824;20.288;2023-05-22T10:21:29;102522.88;;;21.83;42.73
13476;BME280;6810;63.824;20.288;2023-05-22T10:24:16;102526.34;;;21.96;42.06
13476;BME280;6810;63.824;20.288;2023-05-22T10:27:03;102523.56;;;22.09;42.12
13476;BME280;6810;63.824;20.288;2023-05-22T10:29:54;102515.69;;;22.17;41.82
13476;BME280;6810;63.824;20.288;2023-05-22T10:33:20;102508.03;;;22.33;41.80
13476;BME280;6810;63.824;20.288;2023-05-22T10:36:36;102493.00;;;22.40;40.86
13476;BME280;6810;63.824;20.288;2023-05-22T10:39:36;102479.66;;;22.37;41.61
13476;BME280;6810;63.824;20.288;2023-05-22T10:42:30;102502.06;;;22.63;40.35
13476;BME280;6810;63.824;20.288;2023-05-22T10:45:18;102496.50;;;22.75;40.59
13476;BME280;6810;63.824;20.288;2023-05-22T10:50:53;102489.69;;;23.03;40.23
13476;BME280;6810;63.824;20.288;2023-05-22T10:53:43;102489.66;;;23.14;39.30
13476;BME280;6810;63.824;20.288;2023-05-22T10:56:34;102478.63;;;23.26;40.03
13476;BME280;6810;63.824;20.288;2023-05-22T10:59:32;102479.97;;;23.43;39.92
13476;BME280;6810;63.824;20.288;2023-05-22T11:02:24;102473.47;;;23.55;38.62
13476;BME280;6810;63.824;20.288;2023-05-22T11:11:23;102464.31;;;24.08;38.12
13476;BME280;6810;63.824;20.288;2023-05-22T11:14:12;102461.81;;;24.26;37.72
13476;BME280;6810;63.824;20.288;2023-05-22T11:17:00;102449.13;;;24.36;37.74
13476;BME280;6810;63.824;20.288;2023-05-22T11:22:59;102456.81;;;24.61;37.44
13476;BME280;6810;63.824;20.288;2023-05-22T11:25:46;102454.44;;;24.67;36.62
13476;BME280;6810;63.824;20.288;2023-05-22T11:28:33;102458.66;;;24.71;37.07
13476;BME280;6810;63.824;20.288;2023-05-22T11:31:20;102455.38;;;24.77;37.16
13476;BME280;6810;63.824;20.288;2023-05-22T11:34:07;102451.53;;;24.89;36.15
13476;BME280;6810;63.824;20.288;2023-05-22T11:36:58;102445.78;;;24.92;36.02
13476;BME280;6810;63.824;20.288;2023-05-22T11:39:56;102430.97;;;24.95;35.88
13476;BME280;6810;63.824;20.288;2023-05-22T11:42:43;102443.94;;;25.12;35.86
13476;BME280;6810;63.824;20.288;2023-05-22T11:45:30;102419.34;;;25.02;35.50
13476;BME280;6810;63.824;20.288;2023-05-22T11:48:22;102439.66;;;25.28;35.81
13476;BME280;6810;63.824;20.288;2023-05-22T11:51:09;102421.13;;;25.32;35.29
13476;BME280;6810;63.824;20.288;2023-05-22T11:53:57;102424.03;;;25.40;35.11
13476;BME280;6810;63.824;20.288;2023-05-22T11:56:44;102436.69;;;25.41;35.30
13476;BME280;6810;63.824;20.288;2023-05-22T11:59:31;102422.00;;;25.42;35.08
13476;BME280;6810;63.824;20.288;2023-05-22T12:02:19;102426.06;;;25.48;35.24
13476;BME280;6810;63.824;20.288;2023-05-22T12:05:06;102423.59;;;25.54;34.89
13476;BME280;6810;63.824;20.288;2023-05-22T12:07:53;102411.22;;;25.60;34.67
13476;BME280;6810;63.824;20.288;2023-05-22T12:10:50;102404.75;;;25.70;34.82
13476;BME280;6810;63.824;20.288;2023-05-22T12:13:37;102411.06;;;25.80;34.73
13476;BME280;6810;63.824;20.288;2023-05-22T12:16:25;102405.44;;;25.82;34.66
13476;BME280;6810;63.824;20.288;2023-05-22T12:19:12;102395.38;;;25.82;33.95
13476;BME280;6810;63.824;20.288;2023-05-22T12:21:59;102401.88;;;25.81;33.77
13476;BME280;6810;63.824;20.288;2023-05-22T12:24:50;102390.22;;;25.79;33.92
13476;BME280;6810;63.824;20.288;2023-05-22T12:27:38;102387.63;;;25.78;34.38
13476;BME280;6810;63.824;20.288;2023-05-22T12:30:25;102376.53;;;25.79;33.83
13476;BME280;6810;63.824;20.288;2023-05-22T12:33:13;102374.38;;;25.83;33.86
13476;BME280;6810;63.824;20.288;2023-05-22T12:36:06;102380.53;;;25.85;33.53
13476;BME280;6810;63.824;20.288;2023-05-22T12:38:55;102378.09;;;25.82;33.31
13476;BME280;6810;63.824;20.288;2023-05-22T12:41:44;102374.69;;;25.80;34.00
13476;BME280;6810;63.824;20.288;2023-05-22T12:44:31;102362.88;;;25.79;33.41
13476;BME280;6810;63.824;20.288;2023-05-22T12:47:18;102361.41;;;25.85;33.92
13476;BME280;6810;63.824;20.288;2023-05-22T12:50:06;102352.47;;;25.92;33.67
13476;BME280;6810;63.824;20.288;2023-05-22T12:52:53;102354.91;;;25.95;33.16
13476;BME280;6810;63.824;20.288;2023-05-22T12:55:41;102350.16;;;25.97;33.07
13476;BME280;6810;63.824;20.288;2023-05-22T12:58:29;102345.56;;;25.98;32.91
13476;BME280;6810;63.824;20.288;2023-05-22T13:01:16;102339.81;;;25.91;32.64
13476;BME280;6810;63.824;20.288;2023-05-22T13:04:03;102343.59;;;25.81;32.71
13476;BME280;6810;63.824;20.288;2023-05-22T13:06:50;102313.47;;;25.54;32.86
13476;BME280;6810;63.824;20.288;2023-05-22T13:09:37;102333.00;;;25.59;32.69
13476;BME280;6810;63.824;20.288;2023-05-22T13:12:24;102334.75;;;25.50;33.13
13476;BME280;6810;63.824;20.288;2023-05-22T13:15:12;102313.16;;;25.28;33.06
13476;BME280;6810;63.824;20.288;2023-05-22T13:18:02;102302.13;;;25.20;32.68
13476;BME280;6810;63.824;20.288;2023-05-22T13:20:49;102326.84;;;25.18;32.71
13476;BME280;6810;63.824;20.288;2023-05-22T13:23:37;102334.59;;;25.04;33.05
13476;BME280;6810;63.824;20.288;2023-05-22T13:26:24;102323.94;;;24.91;33.26
13476;BME280;6810;63.824;20.288;2023-05-22T13:29:11;102320.38;;;24.81;34.05
13476;BME280;6810;63.824;20.288;2023-05-22T13:31:58;102326.69;;;24.72;34.21
13476;BME280;6810;63.824;20.288;2023-05-22T13:34:46;102304.22;;;24.50;33.97
13476;BME280;6810;63.824;20.288;2023-05-22T13:37:33;102323.72;;;24.55;34.18
13476;BME280;6810;63.824;20.288;2023-05-22T13:40:20;102325.88;;;24.51;34.96
13476;BME280;6810;63.824;20.288;2023-05-22T13:43:07;102313.38;;;24.49;34.61
13476;BME280;6810;63.824;20.288;2023-05-22T13:45:54;102318.28;;;24.45;34.74
13476;BME280;6810;63.824;20.288;2023-05-22T13:48:41;102321.41;;;24.41;35.29
13476;BME280;6810;63.824;20.288;2023-05-22T13:51:28;102315.78;;;24.33;34.53
13476;BME280;6810;63.824;20.288;2023-05-22T13:54:15;102307.25;;;24.17;35.10
13476;BME280;6810;63.824;20.288;2023-05-22T13:57:03;102307.50;;;24.04;34.95
13476;BME280;6810;63.824;20.288;2023-05-22T13:59:50;102312.44;;;23.89;35.08
13476;BME280;6810;63.824;20.288;2023-05-22T14:02:37;102291.66;;;23.68;35.42
13476;BME280;6810;63.824;20.288;2023-05-22T14:05:24;102308.53;;;23.62;35.29
13476;BME280;6810;63.824;20.288;2023-05-22T14:08:11;102308.63;;;23.51;35.50
13476;BME280;6810;63.824;20.288;2023-05-22T14:10:59;102294.38;;;23.38;35.79
13476;BME280;6810;63.824;20.288;2023-05-22T14:13:46;102289.59;;;23.30;35.81
13476;BME280;6810;63.824;20.288;2023-05-22T14:16:33;102294.56;;;23.25;36.06
13476;BME280;6810;63.824;20.288;2023-05-22T14:19:20;102295.31;;;23.16;36.46
13476;BME280;6810;63.824;20.288;2023-05-22T14:22:07;102288.66;;;23.09;36.60
13476;BME280;6810;63.824;20.288;2023-05-22T14:24:54;102282.03;;;23.02;36.62
13476;BME280;6810;63.824;20.288;2023-05-22T14:27:42;102289.84;;;22.96;36.80
13476;BME280;6810;63.824;20.288;2023-05-22T14:30:29;102281.34;;;22.89;37.27
13476;BME280;6810;63.824;20.288;2023-05-22T14:33:16;102274.69;;;22.82;36.78
13476;BME280;6810;63.824;20.288;2023-05-22T14:36:03;102270.16;;;22.72;37.16
13476;BME280;6810;63.824;20.288;2023-05-22T14:38:54;102254.16;;;22.58;37.27
13476;BME280;6810;63.824;20.288;2023-05-22T14:41:41;102263.56;;;22.54;37.41
13476;BME280;6810;63.824;20.288;2023-05-22T14:44:28;102255.28;;;22.44;37.77
13476;BME280;6810;63.824;20.288;2023-05-22T14:47:15;102263.69;;;22.41;37.89
13476;BME280;6810;63.824;20.288;2023-05-22T14:50:03;102259.25;;;22.40;37.89
13476;BME280;6810;63.824;20.288;2023-05-22T14:52:50;102264.81;;;22.39;37.84
13476;BME280;6810;63.824;20.288;2023-05-22T14:55:37;102253.44;;;22.34;37.78
13476;BME280;6810;63.824;20.288;2023-05-22T14:58:24;102248.53;;;22.27;37.94
13476;BME280;6810;63.824;20.288;2023-05-22T15:01:11;102243.59;;;22.21;37.79
13476;BME280;6810;63.824;20.288;2023-05-22T15:03:58;102243.72;;;22.20;37.69
13476;BME280;6810;63.824;20.288;2023-05-22T15:06:45;102209.69;;;21.94;37.97
13476;BME280;6810;63.824;20.288;2023-05-22T15:09:32;102223.91;;;21.97;37.80
13476;BME280;6810;63.824;20.288;2023-05-22T15:12:20;102234.38;;;22.02;37.98
13476;BME280;6810;63.824;20.288;2023-05-22T15:15:07;102219.69;;;21.93;38.41
13476;BME280;6810;63.824;20.288;2023-05-22T15:17:55;102220.19;;;21.98;38.50
13476;BME280;6810;63.824;20.288;2023-05-22T15:20:42;102212.41;;;22.05;38.84
13476;BME280;6810;63.824;20.288;2023-05-22T15:23:29;102207.06;;;22.14;37.85
13476;BME280;6810;63.824;20.288;2023-05-22T15:26:16;102196.91;;;22.16;38.27
13476;BME280;6810;63.824;20.288;2023-05-22T15:29:03;102200.09;;;22.33;38.45
13476;BME280;6810;63.824;20.288;2023-05-22T15:31:50;102196.72;;;22.51;39.00
13476;BME280;6810;63.824;20.288;2023-05-22T15:34:38;102186.88;;;22.71;37.90
13476;BME280;6810;63.824;20.288;2023-05-22T15:37:25;102188.34;;;22.95;38.07
13476;BME280;6810;63.824;20.288;2023-05-22T15:39:54;102188.78;;;23.21;37.71
13476;BME280;6810;63.824;20.288;2023-05-22T15:42:21;102179.75;;;23.41;36.67
13476;BME280;6810;63.824;20.288;2023-05-22T15:44:48;102149.63;;;23.33;37.27
13476;BME280;6810;63.824;20.288;2023-05-22T15:47:15;102178.09;;;23.59;37.00
13476;BME280;6810;63.824;20.288;2023-05-22T15:49:42;102164.22;;;23.62;36.80
13476;BME280;6810;63.824;20.288;2023-05-22T15:52:09;102177.41;;;23.66;37.08
13476;BME280;6810;63.824;20.288;2023-05-22T15:54:57;102161.81;;;23.68;36.39
13476;BME280;6810;63.824;20.288;2023-05-22T15:57:44;102168.69;;;23.72;36.38
13476;BME280;6810;63.824;20.288;2023-05-22T16:00:31;102167.16;;;23.79;36.82
13476;BME280;6810;63.824;20.288;2023-05-22T16:03:18;102156.97;;;23.81;36.37
13476;BME280;6810;63.824;20.288;2023-05-22T16:06:05;102141.19;;;23.85;36.29
13476;BME280;6810;63.824;20.288;2023-05-22T16:08:53;102123.84;;;23.86;36.22
13476;BME280;6810;63.824;20.288;2023-05-22T16:11:40;102142.41;;;24.02;35.66
13476;BME280;6810;63.824;20.288;2023-05-22T16:14:27;102134.97;;;24.04;35.58
13476;BME280;6810;63.824;20.288;2023-05-22T16:17:15;102143.00;;;24.05;35.74
13476;BME280;6810;63.824;20.288;2023-05-22T16:20:02;102126.19;;;24.00;35.71
13476;BME280;6810;63.824;20.288;2023-05-22T16:22:50;102116.03;;;24.02;35.89
13476;BME280;6810;63.824;20.288;2023-05-22T16:25:37;102131.97;;;24.16;35.96
13476;BME280;6810;63.824;20.288;2023-05-22T16:28:24;102129.81;;;24.20;36.25
13476;BME280;6810;63.824;20.288;2023-05-22T16:31:11;102132.94;;;24.06;35.59
13476;BME280;6810;63.824;20.288;2023-05-22T16:33:59;102116.25;;;23.89;36.56
13476;BME280;6810;63.824;20.288;2023-05-22T16:36:46;102128.19;;;23.98;36.30
13476;BME280;6810;63.824;20.288;2023-05-22T16:39:33;102114.44;;;24.00;36.50
13476;BME280;6810;63.824;20.288;2023-05-22T16:42:20;102108.69;;;24.03;36.94
13476;BME280;6810;63.824;20.288;2023-05-22T16:45:07;102095.34;;;24.00;36.23
13476;BME280;6810;63.824;20.288;2023-05-22T16:47:54;102101.09;;;23.97;36.52
13476;BME280;6810;63.824;20.288;2023-05-22T16:50:42;102096.03;;;23.92;37.00
13476;BME280;6810;63.824;20.288;2023-05-22T16:53:29;102093.59;;;23.89;36.92
13476;BME280;6810;63.824;20.288;2023-05-22T16:56:16;102095.03;;;23.83;36.40
13476;BME280;6810;63.824;20.288;2023-05-22T16:59:03;102092.56;;;23.71;36.51
13476;BME280;6810;63.824;20.288;2023-05-22T17:01:51;102090.41;;;23.65;36.96
13476;BME280;6810;63.824;20.288;2023-05-22T17:04:38;102098.84;;;23.62;36.93
13476;BME280;6810;63.824;20.288;2023-05-22T17:07:25;102098.25;;;23.58;37.53
13476;BME280;6810;63.824;20.288;2023-05-22T17:10:12;102099.69;;;23.53;37.67
13476;BME280;6810;63.824;20.288;2023-05-22T17:12:59;102097.06;;;23.42;37.38
13476;BME280;6810;63.824;20.288;2023-05-22T17:15:50;102094.31;;;23.32;37.43
13476;BME280;6810;63.824;20.288;2023-05-22T17:18:37;102075.16;;;23.13;37.66
13476;BME280;6810;63.824;20.288;2023-05-22T17:21:24;102089.91;;;23.11;37.65
13476;BME280;6810;63.824;20.288;2023-05-22T17:24:12;102083.69;;;22.99;37.45
13476;BME280;6810;63.824;20.288;2023-05-22T17:26:59;102077.66;;;22.96;37.43
13476;BME280;6810;63.824;20.288;2023-05-22T17:30:01;102074.38;;;22.92;37.35
13476;BME280;6810;63.824;20.288;2023-05-22T17:32:48;102075.34;;;22.91;37.64
13476;BME280;6810;63.824;20.288;2023-05-22T17:35:35;102056.69;;;22.87;38.10
13476;BME280;6810;63.824;20.288;2023-05-22T17:38:22;102065.25;;;23.03;37.45
13476;BME280;6810;63.824;20.288;2023-05-22T17:41:10;102055.25;;;23.13;37.61
13476;BME280;6810;63.824;20.288;2023-05-22T17:43:57;102041.22;;;23.17;36.23
13476;BME280;6810;63.824;20.288;2023-05-22T17:46:44;102055.16;;;23.24;36.95
13476;BME280;6810;63.824;20.288;2023-05-22T17:49:31;102045.22;;;23.13;36.46
13476;BME280;6810;63.824;20.288;2023-05-22T17:52:18;102049.75;;;23.03;36.41
13476;BME280;6810;63.824;20.288;2023-05-22T17:55:05;102051.47;;;22.95;37.15
13476;BME280;6810;63.824;20.288;2023-05-22T17:57:53;102061.03;;;22.89;36.98
13476;BME280;6810;63.824;20.288;2023-05-22T18:00:41;102049.91;;;22.72;36.76
13476;BME280;6810;63.824;20.288;2023-05-22T18:03:29;102048.53;;;22.57;36.69
13476;BME280;6810;63.824;20.288;2023-05-22T18:06:16;102047.66;;;22.36;37.82
13476;BME280;6810;63.824;20.288;2023-05-22T18:09:03;102043.31;;;22.33;37.61
13476;BME280;6810;63.824;20.288;2023-05-22T18:11:51;102039.38;;;22.37;37.60
13476;BME280;6810;63.824;20.288;2023-05-22T18:14:57;102048.84;;;22.43;38.08
13476;BME280;6810;63.824;20.288;2023-05-22T18:17:44;102041.06;;;22.38;38.19
13476;BME280;6810;63.824;20.288;2023-05-22T18:20:31;102037.63;;;22.36;38.66
13476;BME280;6810;63.824;20.288;2023-05-22T18:23:18;102030.59;;;22.34;38.93
13476;BME280;6810;63.824;20.288;2023-05-22T18:26:06;102028.16;;;22.31;38.99
13476;BME280;6810;63.824;20.288;2023-05-22T18:28:53;102025.22;;;22.22;39.36
13476;BME280;6810;63.824;20.288;2023-05-22T18:31:40;102024.91;;;22.16;40.25
13476;BME280;6810;63.824;20.288;2023-05-22T18:34:27;102021.13;;;22.07;40.19
13476;BME280;6810;63.824;20.288;2023-05-22T18:37:14;102018.94;;;22.01;40.79
13476;BME280;6810;63.824;20.288;2023-05-22T18:40:01;102017.75;;;21.94;40.94
13476;BME280;6810;63.824;20.288;2023-05-22T18:42:48;102018.53;;;21.85;41.12
13476;BME280;6810;63.824;20.288;2023-05-22T18:45:35;102015.47;;;21.79;41.06
13476;BME280;6810;63.824;20.288;2023-05-22T18:48:23;102018.78;;;21.71;40.97
13476;BME280;6810;63.824;20.288;2023-05-22T18:51:10;102015.22;;;21.60;41.08
13476;BME280;6810;63.824;20.288;2023-05-22T18:53:57;102014.53;;;21.47;40.77
13476;BME280;6810;63.824;20.288;2023-05-22T18:56:44;101989.31;;;21.24;40.83
13476;BME280;6810;63.824;20.288;2023-05-22T18:59:31;102010.28;;;21.22;41.30
13476;BME280;6810;63.824;20.288;2023-05-22T19:02:18;102006.97;;;21.08;41.69
13476;BME280;6810;63.824;20.288;2023-05-22T19:05:06;101999.69;;;20.97;42.09
13476;BME280;6810;63.824;20.288;2023-05-22T19:07:53;101993.91;;;20.80;42.85
13476;BME280;6810;63.824;20.288;2023-05-22T19:10:40;101987.00;;;20.65;42.90
13476;BME280;6810;63.824;20.288;2023-05-22T19:13:27;101987.13;;;20.52;43.39
13476;BME280;6810;63.824;20.288;2023-05-22T19:16:14;101973.28;;;20.33;44.12
13476;BME280;6810;63.824;20.288;2023-05-22T19:19:02;101985.00;;;20.33;44.41
13476;BME280;6810;63.824;20.288;2023-05-22T19:21:49;101982.25;;;20.22;44.95
13476;BME280;6810;63.824;20.288;2023-05-22T19:24:36;101986.25;;;20.06;45.30
13476;BME280;6810;63.824;20.288;2023-05-22T19:27:24;101979.72;;;19.97;45.59
13476;BME280;6810;63.824;20.288;2023-05-22T19:30:11;101979.03;;;19.83;45.79
13476;BME280;6810;63.824;20.288;2023-05-22T19:32:58;101952.59;;;19.52;45.55
13476;BME280;6810;63.824;20.288;2023-05-22T19:35:45;101992.38;;;19.62;45.65
13476;BME280;6810;63.824;20.288;2023-05-22T19:38:32;101987.97;;;19.49;45.54
13476;BME280;6810;63.824;20.288;2023-05-22T19:41:19;101990.13;;;19.33;45.82
13476;BME280;6810;63.824;20.288;2023-05-22T19:44:06;101994.78;;;19.18;46.08
13476;BME280;6810;63.824;20.288;2023-05-22T19:46:53;101982.28;;;19.05;46.57
13476;BME280;6810;63.824;20.288;2023-05-22T19:49:40;101974.53;;;18.87;46.60
13476;BME280;6810;63.824;20.288;2023-05-22T19:52:27;101988.81;;;18.77;46.47
13476;BME280;6810;63.824;20.288;2023-05-22T19:55:15;101964.00;;;18.59;46.94
13476;BME280;6810;63.824;20.288;2023-05-22T19:58:02;101985.06;;;18.54;46.67
13476;BME280;6810;63.824;20.288;2023-05-22T20:00:49;101976.34;;;18.38;47.42
13476;BME280;6810;63.824;20.288;2023-05-22T20:03:36;101983.22;;;18.30;47.65
13476;BME280;6810;63.824;20.288;2023-05-22T20:06:23;101981.25;;;18.19;47.91
13476;BME280;6810;63.824;20.288;2023-05-22T20:09:10;101984.72;;;18.09;48.44
13476;BME280;6810;63.824;20.288;2023-05-22T20:11:57;101983.06;;;17.94;48.40
13476;BME280;6810;63.824;20.288;2023-05-22T20:14:44;101979.56;;;17.79;48.66
13476;BME280;6810;63.824;20.288;2023-05-22T20:17:32;101979.56;;;17.67;48.51
13476;BME280;6810;63.824;20.288;2023-05-22T20:20:20;101981.13;;;17.57;49.23
13476;BME280;6810;63.824;20.288;2023-05-22T20:23:07;101970.09;;;17.47;49.47
13476;BME280;6810;63.824;20.288;2023-05-22T20:25:54;101984.25;;;17.37;49.32
13476;BME280;6810;63.824;20.288;2023-05-22T20:28:41;101962.31;;;17.16;49.93
13476;BME280;6810;63.824;20.288;2023-05-22T20:31:29;101967.78;;;17.14;50.17
13476;BME280;6810;63.824;20.288;2023-05-22T20:34:16;101977.41;;;17.04;50.02
13476;BME280;6810;63.824;20.288;2023-05-22T20:37:03;101975.44;;;16.94;49.69
13476;BME280;6810;63.824;20.288;2023-05-22T20:39:50;101976.03;;;16.85;50.32
13476;BME280;6810;63.824;20.288;2023-05-22T20:42:38;101958.84;;;16.73;49.94
13476;BME280;6810;63.824;20.288;2023-05-22T20:45:25;101959.50;;;16.63;50.14
13476;BME280;6810;63.824;20.288;2023-05-22T20:48:12;101961.72;;;16.56;51.11
13476;BME280;6810;63.824;20.288;2023-05-22T20:50:59;101974.91;;;16.47;50.81
13476;BME280;6810;63.824;20.288;2023-05-22T20:53:47;101972.66;;;16.39;50.82
13476;BME280;6810;63.824;20.288;2023-05-22T20:56:34;101972.34;;;16.30;50.97
13476;BME280;6810;63.824;20.288;2023-05-22T20:59:21;101942.09;;;16.12;51.60
13476;BME280;6810;63.824;20.288;2023-05-22T21:02:08;101964.44;;;16.13;51.79
13476;BME280;6810;63.824;20.288;2023-05-22T21:04:55;101958.75;;;16.03;52.24
13476;BME280;6810;63.824;20.288;2023-05-22T21:07:42;101954.13;;;15.91;52.10
13476;BME280;6810;63.824;20.288;2023-05-22T21:10:29;101939.91;;;15.75;52.03
13476;BME280;6810;63.824;20.288;2023-05-22T21:13:18;101951.44;;;15.77;52.35
13476;BME280;6810;63.824;20.288;2023-05-22T21:16:05;101955.53;;;15.69;52.63
13476;BME280;6810;63.824;20.288;2023-05-22T21:18:53;101953.38;;;15.59;52.38
13476;BME280;6810;63.824;20.288;2023-05-22T21:21:40;101962.00;;;15.50;53.15
13476;BME280;6810;63.824;20.288;2023-05-22T21:24:27;101950.72;;;15.44;53.22
13476;BME280;6810;63.824;20.288;2023-05-22T21:27:14;101943.09;;;15.36;53.32
13476;BME280;6810;63.824;20.288;2023-05-22T21:30:01;101939.22;;;15.26;53.28
13476;BME280;6810;63.824;20.288;2023-05-22T21:32:48;101938.59;;;15.21;53.34
13476;BME280;6810;63.824;20.288;2023-05-22T21:35:35;101934.81;;;15.10;53.80
13476;BME280;6810;63.824;20.288;2023-05-22T21:38:22;101933.25;;;15.06;54.09
13476;BME280;6810;63.824;20.288;2023-05-22T21:41:09;101924.25;;;14.91;53.95
13476;BME280;6810;63.824;20.288;2023-05-22T21:43:57;101936.81;;;14.91;54.24
13476;BME280;6810;63.824;20.288;2023-05-22T21:46:44;101943.50;;;14.84;54.34
13476;BME280;6810;63.824;20.288;2023-05-22T21:49:31;101942.09;;;14.77;54.25
13476;BME280;6810;63.824;20.288;2023-05-22T21:52:18;101931.69;;;14.71;54.77
13476;BME280;6810;63.824;20.288;2023-05-22T21:55:06;101932.13;;;14.63;54.84
13476;BME280;6810;63.824;20.288;2023-05-22T21:57:54;101925.47;;;14.55;55.05
13476;BME280;6810;63.824;20.288;2023-05-22T22:00:41;101913.56;;;14.43;55.38
13476;BME280;6810;63.824;20.288;2023-05-22T22:03:28;101924.47;;;14.40;55.60
13476;BME280;6810;63.824;20.288;2023-05-22T22:06:15;101920.41;;;14.33;56.18
13476;BME280;6810;63.824;20.288;2023-05-22T22:09:02;101880.59;;;14.09;55.69
13476;BME280;6810;63.824;20.288;2023-05-22T22:11:49;101912.13;;;14.21;56.11
13476;BME280;6810;63.824;20.288;2023-05-22T22:14:36;101909.78;;;14.15;56.60
13476;BME280;6810;63.824;20.288;2023-05-22T22:17:24;101904.81;;;14.07;56.66
13476;BME280;6810;63.824;20.288;2023-05-22T22:20:11;101908.69;;;14.02;57.18
13476;BME280;6810;63.824;20.288;2023-05-22T22:23:11;101904.69;;;13.93;56.69
13476;BME280;6810;63.824;20.288;2023-05-22T22:25:58;101897.84;;;13.87;57.55
13476;BME280;6810;63.824;20.288;2023-05-22T22:28:45;101902.66;;;13.81;57.53
13476;BME280;6810;63.824;20.288;2023-05-22T22:31:32;101893.34;;;13.71;57.51
13476;BME280;6810;63.824;20.288;2023-05-22T22:34:20;101890.00;;;13.67;57.62